Time;durP1;ratioP1;P1;durP2;ratioP2;P2;SDS_P1;SDS_P2;PMS_P1;PMS_P2;Temp;Humidity;BMP_temperature;BMP_pressure;BME280_temperature;BME280_humidity;BME280_pressure;Samples;Min_cycle;Max_cycle;Signal;HPM_P1;HPM_P2
2022/03/14 00:00:16;;;;;;;228.60;130.13;;;0.30;2201.60;;;;;;4901970;29;20020;-82
2022/03/14 00:05:31;;;;;;;194.93;106.60;;;0.20;2201.60;;;;;;4918791;29;20026;-81
2022/03/14 00:08:03;;;;;;;152.27;88.25;;;0.40;2201.60;;;;;;4901465;29;20493;-81
2022/03/14 00:10:29;;;;;;;217.00;104.83;;;0.40;2201.60;;;;;;4901225;29;20047;-79
2022/03/14 00:12:58;;;;;;;141.20;83.03;;;0.30;2201.60;;;;;;4901301;29;20070;-81
2022/03/14 00:15:30;;;;;;;147.20;88.85;;;0.30;2201.60;;;;;;4900984;29;20023;-78
2022/03/14 05:59:30;;;;;;;63.15;39.53;;;64.10;2201.60;;;;;;4924753;29;20035;-74
2022/03/14 06:09:25;;;;;;;;;;;;;;;;;;;;;
2022/03/14 06:21:53;;;;;;;59.72;40.05;;;39.00;2201.60;;;;;;4808979;29;20627;-76
2022/03/14 06:25:05;;;;;;;67.55;40.55;;;38.90;2201.60;;;;;;4829652;29;20095;-76
2022/03/14 06:34:31;;;;;;;61.33;37.17;;;38.50;2201.60;;;;;;4846471;29;20041;-76
2022/03/14 06:37:40;;;;;;;58.78;33.35;;;38.40;2201.60;;;;;;4847013;29;20536;-77
2022/03/14 06:40:23;;;;;;;54.90;34.45;;;38.40;2201.60;;;;;;4883402;29;20037;-76
2022/03/14 06:57:29;;;;;;;47.53;29.23;;;13.50;2201.60;;;;;;4796714;30;20073;-79
2022/03/14 07:07:33;;;;;;;44.70;26.33;;;13.20;2201.60;;;;;;4790226;30;20551;-78
2022/03/14 07:34:03;;;;;;;54.72;35.17;;;0.90;2201.60;;;;;;4879036;29;20037;-78
2022/03/14 08:19:38;;;;;;;56.40;32.63;;;51.70;2227.20;;;;;;4918335;29;20554;-82
2022/03/14 08:52:45;;;;;;;53.95;32.28;;;102.40;2227.20;;;;;;4909162;29;20032;-78
2022/03/14 08:58:44;;;;;;;49.97;33.47;;;102.60;2227.20;;;;;;4898006;29;20483;-79
2022/03/14 09:01:21;;;;;;;60.95;40.92;;;102.80;2227.20;;;;;;4881867;29;20378;-79
2022/03/14 09:03:57;;;;;;;58.85;39.22;;;102.90;2227.20;;;;;;4913327;29;20028;-79
2022/03/14 09:06:24;;;;;;;62.83;40.13;;;103.10;2227.20;;;;;;4881240;29;20048;-78
2022/03/14 09:08:50;;;;;;;51.78;36.92;;;103.20;2201.60;;;;;;4913258;29;20054;-79
2022/03/14 09:11:18;;;;;;;49.65;32.58;;;128.00;2227.20;;;;;;4913288;29;20118;-75
2022/03/14 09:13:43;;;;;;;54.80;34.15;;;128.20;2201.60;;;;;;4912993;29;20033;-74
2022/03/14 09:16:09;;;;;;;49.90;34.45;;;128.20;2227.20;;;;;;4915358;29;20378;-74
2022/03/14 09:18:36;;;;;;;48.88;30.15;;;128.30;2201.60;;;;;;4915340;29;20024;-71
2022/03/14 09:21:03;;;;;;;53.65;31.70;;;128.20;2227.20;;;;;;4913223;29;20039;-73
2022/03/14 09:23:29;;;;;;;45.30;30.23;;;128.40;2201.60;;;;;;4901056;29;20055;-75
2022/03/14 09:25:56;;;;;;;43.53;29.13;;;128.70;2150.40;;;;;;4916444;29;20454;-76
2022/03/14 09:28:22;;;;;;;50.63;29.20;;;128.80;2124.80;;;;;;4900538;29;20067;-76
2022/03/14 09:30:48;;;;;;;46.58;31.13;;;153.60;2124.80;;;;;;4900410;29;20478;-76
2022/03/14 09:33:14;;;;;;;37.35;26.20;;;153.70;2150.40;;;;;;4917419;29;20036;-76
2022/03/14 09:35:40;;;;;;;34.03;24.98;;;153.80;2099.20;;;;;;4916660;29;20351;-75
2022/03/14 09:38:06;;;;;;;35.97;24.30;;;154.10;2099.20;;;;;;4917395;29;20032;-76
2022/03/14 09:40:32;;;;;;;45.15;26.63;;;154.10;2073.60;;;;;;4910736;29;20028;-73
2022/03/14 09:42:59;;;;;;;38.13;23.60;;;154.40;2073.60;;;;;;4883317;29;20024;-72
2022/03/14 09:45:27;;;;;;;34.72;22.70;;;154.30;2022.40;;;;;;4881626;29;20024;-74
2022/03/14 09:48:03;;;;;;;37.60;24.83;;;154.10;2048.00;;;;;;4888837;29;20029;-81
2022/03/14 09:50:38;;;;;;;27.02;17.08;;;154.20;2099.20;;;;;;4899858;29;20030;-73
2022/03/14 09:53:09;;;;;;;29.38;19.92;;;154.20;1996.80;;;;;;4898456;29;20036;-75
2022/03/14 09:55:46;;;;;;;27.92;15.57;;;154.40;2022.40;;;;;;4912281;29;20032;-77
2022/03/14 09:58:18;;;;;;;24.55;15.82;;;179.30;1920.00;;;;;;4881489;29;20029;-76
2022/03/14 10:00:44;;;;;;;34.08;19.58;;;179.50;1945.60;;;;;;4898575;29;20024;-75
2022/03/14 10:03:11;;;;;;;26.83;15.27;;;179.70;1945.60;;;;;;4881099;29;20463;-77
2022/03/14 10:05:37;;;;;;;20.73;12.05;;;180.10;1843.20;;;;;;4881255;29;20539;-75
2022/03/14 10:08:03;;;;;;;20.60;14.30;;;204.80;1817.60;;;;;;4888007;29;20451;-76
2022/03/14 10:10:29;;;;;;;25.27;14.07;;;204.80;1817.60;;;;;;4891959;29;20031;-76
2022/03/14 10:12:57;;;;;;;26.20;15.50;;;205.00;1817.60;;;;;;4892052;29;20032;-76
2022/03/14 10:15:27;;;;;;;15.40;10.40;;;205.00;1843.20;;;;;;4909115;29;20021;-76
2022/03/14 10:17:55;;;;;;;22.40;15.00;;;205.00;1740.80;;;;;;4901805;29;20024;-75
2022/03/14 10:20:25;;;;;;;22.95;15.05;;;205.10;1792.00;;;;;;4916234;29;20111;-78
2022/03/14 10:22:51;;;;;;;24.10;14.68;;;205.20;1792.00;;;;;;4915845;29;20039;-79
2022/03/14 10:25:21;;;;;;;21.45;10.85;;;205.40;1792.00;;;;;;4901093;29;20031;-75
2022/03/14 10:27:55;;;;;;;29.15;16.77;;;205.50;1740.80;;;;;;4916116;29;20063;-76
2022/03/14 10:30:22;;;;;;;29.00;18.10;;;205.50;1766.40;;;;;;4915905;29;20090;-75
2022/03/14 10:32:49;;;;;;;27.25;18.52;;;205.60;1715.20;;;;;;4915960;29;20040;-77
2022/03/14 10:35:20;;;;;;;25.73;16.88;;;205.70;1740.80;;;;;;4884488;29;20059;-78
2022/03/14 10:38:01;;;;;;;21.20;13.75;;;205.60;1792.00;;;;;;4884393;29;20024;-78
2022/03/14 10:40:37;;;;;;;33.13;22.17;;;205.60;1766.40;;;;;;4901465;29;20016;-78
2022/03/14 10:43:20;;;;;;;15.10;9.43;;;230.50;1766.40;;;;;;4915912;29;20029;-78
2022/03/14 10:45:46;;;;;;;32.70;20.88;;;230.70;1664.00;;;;;;4884087;29;20344;-78
2022/03/14 10:48:12;;;;;;;30.13;18.73;;;230.70;1689.60;;;;;;4884354;29;20021;-79
2022/03/14 10:50:40;;;;;;;24.67;14.13;;;230.90;1689.60;;;;;;4915630;29;20378;-78
2022/03/14 10:53:19;;;;;;;20.60;13.95;;;231.00;1638.40;;;;;;4883840;29;20490;-79
2022/03/14 10:55:56;;;;;;;16.05;11.05;;;231.20;1612.80;;;;;;4915659;29;20020;-78
2022/03/14 10:58:33;;;;;;;19.30;11.05;;;256.00;1587.20;;;;;;4915408;29;20039;-77
2022/03/14 11:01:02;;;;;;;13.05;9.00;;;256.20;1587.20;;;;;;4884244;29;20031;-76
2022/03/14 11:03:45;;;;;;;16.88;10.60;;;256.00;1561.60;;;;;;4900681;29;20573;-77
2022/03/14 11:06:13;;;;;;;14.27;9.10;;;231.30;1638.40;;;;;;4914013;29;20044;-77
2022/03/14 11:08:45;;;;;;;17.27;11.02;;;256.10;1561.60;;;;;;4915413;29;20035;-76
2022/03/14 11:11:16;;;;;;;20.40;13.50;;;256.30;1536.00;;;;;;4915049;29;20163;-79
2022/03/14 11:14:17;;;;;;;16.45;12.00;;;256.70;1561.60;;;;;;4883266;29;20159;-79
2022/03/14 11:17:22;;;;;;;11.57;8.25;;;256.80;1561.60;;;;;;4900261;29;20044;-77
2022/03/14 11:20:14;;;;;;;14.95;7.93;;;281.80;1536.00;;;;;;4899471;29;20013;-78
2022/03/14 11:22:41;;;;;;;17.05;9.55;;;281.90;1510.40;;;;;;4883549;29;20021;-76
2022/03/14 11:25:07;;;;;;;14.90;8.57;;;282.10;1484.80;;;;;;4883561;29;20111;-75
2022/03/14 11:27:36;;;;;;;15.30;9.88;;;282.10;1459.20;;;;;;4883612;29;20028;-77
2022/03/14 11:30:12;;;;;;;19.23;10.38;;;282.30;1459.20;;;;;;4900458;29;20029;-78
2022/03/14 11:32:38;;;;;;;33.72;18.27;;;307.40;1484.80;;;;;;4914853;29;20032;-80
2022/03/14 11:35:41;;;;;;;43.33;23.70;;;307.70;1510.40;;;;;;4914299;29;20028;-77
2022/03/14 11:38:15;;;;;;;24.58;15.70;;;332.80;1510.40;;;;;;4878768;29;20025;-77
2022/03/14 11:50:54;;;;;;;14.90;11.20;;;333.30;1459.20;;;;;;4899956;29;20063;-78
2022/03/14 11:53:52;;;;;;;14.75;9.45;;;333.20;1484.80;;;;;;4883164;29;20037;-78
2022/03/14 11:56:18;;;;;;;17.00;10.30;;;333.50;1433.60;;;;;;4914356;29;20020;-77
2022/03/14 11:58:47;;;;;;;19.75;14.27;;;333.60;1433.60;;;;;;4882857;29;20027;-80
2022/03/14 12:01:28;;;;;;;24.50;17.50;;;333.70;1459.20;;;;;;4882574;29;20028;-80
2022/03/14 12:04:05;;;;;;;20.50;14.80;;;;;;;;;;4882711;29;20025;-79
2022/03/14 12:06:46;;;;;;;23.33;14.65;;;358.80;1433.60;;;;;;4883051;29;20048;-79
2022/03/14 12:09:24;;;;;;;14.93;11.05;;;359.00;1408.00;;;;;;4882764;29;20033;-80
2022/03/14 12:11:55;;;;;;;17.08;11.38;;;359.00;1356.80;;;;;;4882719;29;20043;-79
2022/03/14 12:14:43;;;;;;;18.02;11.25;;;;;;;;;;4913449;29;20040;-80
2022/03/14 12:17:15;;;;;;;16.00;10.48;;;384.10;1382.40;;;;;;4883101;29;20484;-81
2022/03/14 12:19:49;;;;;;;14.47;9.63;;;384.20;1356.80;;;;;;4883132;29;20080;-79
2022/03/14 12:22:30;;;;;;;14.20;9.73;;;384.10;1305.60;;;;;;4913523;29;20359;-80
2022/03/14 12:25:00;;;;;;;13.40;8.20;;;384.40;1356.80;;;;;;4882921;29;20020;-80
2022/03/14 12:27:35;;;;;;;10.90;7.28;;;384.40;1305.60;;;;;;4914357;29;20036;-79
2022/03/14 12:30:30;;;;;;;12.75;7.90;;;384.40;1305.60;;;;;;4883302;29;20028;-79
2022/03/14 12:32:57;;;;;;;38.03;23.80;;;384.50;1356.80;;;;;;4874845;29;20075;-80
2022/03/14 12:35:24;;;;;;;42.15;28.30;;;384.70;1305.60;;;;;;4914251;29;20160;-79
2022/03/14 12:37:58;;;;;;;37.65;22.55;;;384.90;1305.60;;;;;;4882324;29;20506;-79
2022/03/14 12:40:27;;;;;;;32.13;20.27;;;384.90;1331.20;;;;;;4899286;29;20079;-81
2022/03/14 12:43:16;;;;;;;29.90;20.08;;;409.70;1331.20;;;;;;4899199;29;20024;-77
2022/03/14 12:45:47;;;;;;;30.15;18.85;;;409.70;1305.60;;;;;;4899141;29;20028;-77
2022/03/14 12:48:19;;;;;;;15.82;10.50;;;409.70;1356.80;;;;;;4913668;29;20485;-78
2022/03/14 12:50:50;;;;;;;14.47;9.20;;;409.80;1280.00;;;;;;4882156;29;20027;-79
2022/03/14 12:53:29;;;;;;;30.57;20.97;;;409.90;1305.60;;;;;;4898828;29;20043;-77
2022/03/14 12:56:00;;;;;;;14.35;9.35;;;409.80;1331.20;;;;;;4882346;29;20116;-78
2022/03/14 12:58:27;;;;;;;16.63;10.30;;;409.90;1280.00;;;;;;4898957;29;20028;-76
2022/03/14 13:00:58;;;;;;;24.50;16.17;;;409.80;1280.00;;;;;;4882227;29;20423;-78
2022/03/14 13:03:29;;;;;;;18.00;11.75;;;409.90;1305.60;;;;;;4899100;29;20064;-78
2022/03/14 13:05:56;;;;;;;16.90;11.63;;;410.00;1305.60;;;;;;4899205;29;20052;-78
2022/03/14 13:08:23;;;;;;;16.02;10.55;;;410.00;1280.00;;;;;;4931333;29;20052;-75
2022/03/14 13:10:51;;;;;;;13.15;8.77;;;410.20;1305.60;;;;;;4916519;29;20571;-76
2022/03/14 13:13:36;;;;;;;20.20;13.70;;;410.40;1254.40;;;;;;4898619;29;20040;-76
2022/03/14 13:16:05;;;;;;;13.43;8.40;;;410.40;1305.60;;;;;;4911390;29;20027;-77
2022/03/14 13:18:38;;;;;;;38.17;24.45;;;410.30;1280.00;;;;;;4900757;29;20024;-78
2022/03/14 13:21:28;;;;;;;48.20;26.75;;;410.40;1305.60;;;;;;4900578;29;20461;-79
2022/03/14 13:24:00;;;;;;;51.25;21.73;;;410.50;1331.20;;;;;;4900443;29;20032;-76
2022/03/14 13:26:26;;;;;;;66.30;30.47;;;410.50;1305.60;;;;;;4900199;29;20051;-83
2022/03/14 13:28:53;;;;;;;17.10;11.00;;;435.20;1305.60;;;;;;4900275;29;20024;-80
2022/03/14 13:31:38;;;;;;;23.50;14.15;;;410.40;1305.60;;;;;;4917399;29;20028;-79
2022/03/14 13:34:07;;;;;;;17.17;14.32;;;435.20;1305.60;;;;;;4900507;29;20039;-80
2022/03/14 13:36:42;;;;;;;13.20;8.63;;;435.30;1254.40;;;;;;4900232;29;20052;-81
2022/03/14 13:39:11;;;;;;;22.00;12.63;;;410.40;1280.00;;;;;;4917266;29;20024;-79
2022/03/14 13:41:38;;;;;;;15.30;10.20;;;410.40;1228.80;;;;;;4900439;29;20477;-76
2022/03/14 13:44:05;;;;;;;15.35;11.40;;;435.30;1254.40;;;;;;4901453;29;20370;-78
2022/03/14 13:46:37;;;;;;;11.88;7.18;;;435.30;1254.40;;;;;;4904149;29;20079;-78
2022/03/14 13:49:22;;;;;;;13.98;8.57;;;435.30;1228.80;;;;;;4904401;29;20024;-78
2022/03/14 13:51:57;;;;;;;15.07;10.15;;;435.50;1254.40;;;;;;4904030;29;20044;-79
2022/03/14 13:54:26;;;;;;;23.60;14.10;;;435.30;1280.00;;;;;;4904017;29;20084;-77
2022/03/14 13:56:58;;;;;;;13.45;9.25;;;435.20;1228.80;;;;;;4920953;29;20031;-77
2022/03/14 13:59:32;;;;;;;18.87;13.03;;;410.50;1228.80;;;;;;4904623;29;20096;-78
2022/03/14 14:02:05;;;;;;;10.75;6.57;;;435.30;1254.40;;;;;;4904292;29;20051;-79
2022/03/14 14:04:44;;;;;;;13.48;8.55;;;435.20;1280.00;;;;;;4903659;29;20021;-77
2022/03/14 14:07:19;;;;;;;12.32;8.95;;;410.50;1305.60;;;;;;4904079;29;20028;-78
2022/03/14 14:09:48;;;;;;;17.52;12.43;;;410.50;1228.80;;;;;;4904097;29;20064;-79
2022/03/14 14:12:21;;;;;;;22.15;16.10;;;435.20;1280.00;;;;;;4903681;29;20035;-77
2022/03/14 14:14:57;;;;;;;22.63;14.80;;;435.20;1280.00;;;;;;4920984;29;20031;-81
2022/03/14 14:17:34;;;;;;;26.52;16.67;;;435.40;1280.00;;;;;;4904050;29;20050;-81
2022/03/14 14:20:18;;;;;;;15.80;8.55;;;435.20;1280.00;;;;;;4903994;29;20468;-81
2022/03/14 14:22:55;;;;;;;17.38;10.65;;;410.40;1280.00;;;;;;4903881;29;20032;-80
2022/03/14 14:25:25;;;;;;;12.18;8.10;;;410.20;1280.00;;;;;;4903673;29;20024;-80
2022/03/14 14:28:00;;;;;;;21.52;15.10;;;409.80;1228.80;;;;;;4920676;29;20031;-81
2022/03/14 14:30:31;;;;;;;28.42;18.30;;;410.00;1280.00;;;;;;4920729;29;20016;-79
2022/03/14 14:32:58;;;;;;;16.85;10.68;;;410.00;1280.00;;;;;;4903390;29;20459;-79
2022/03/14 14:35:24;;;;;;;10.32;6.70;;;409.80;1280.00;;;;;;4920608;29;20016;-79
2022/03/14 14:37:50;;;;;;;9.05;5.95;;;409.60;1254.40;;;;;;4903646;29;20079;-82
2022/03/14 14:40:17;;;;;;;8.98;6.40;;;384.30;1228.80;;;;;;4903408;29;20028;-78
2022/03/14 14:42:43;;;;;;;18.92;10.52;;;384.20;1254.40;;;;;;4903504;29;20458;-82
2022/03/14 14:45:09;;;;;;;59.38;31.15;;;384.10;1305.60;;;;;;4903725;29;20474;-81
2022/03/14 14:47:35;;;;;;;60.67;39.25;;;359.30;1305.60;;;;;;4903459;29;20028;-82
2022/03/14 14:50:02;;;;;;;71.45;55.65;;;359.00;1382.40;;;;;;4903484;29;20020;-80
2022/03/14 14:52:27;;;;;;;87.47;58.00;;;359.20;1382.40;;;;;;4920214;29;20114;-84
2022/03/14 14:54:58;;;;;;;76.05;47.88;;;358.40;1382.40;;;;;;4902701;29;20423;-79
2022/03/14 14:57:24;;;;;;;83.63;51.28;;;333.50;1433.60;;;;;;4903626;29;20020;-79
2022/03/14 14:59:50;;;;;;;181.18;118.85;;;333.20;1433.60;;;;;;4902646;29;20463;-80
2022/03/14 15:02:16;;;;;;;118.88;68.60;;;333.00;1433.60;;;;;;4903118;29;20032;-77
2022/03/14 15:04:42;;;;;;;47.90;28.83;;;332.90;1433.60;;;;;;4903053;29;20035;-80
2022/03/14 15:07:07;;;;;;;40.45;25.35;;;308.00;1382.40;;;;;;4903011;29;20050;-80
2022/03/14 15:09:34;;;;;;;47.65;30.77;;;307.80;1433.60;;;;;;4902860;29;20024;-78
2022/03/14 15:12:00;;;;;;;23.60;15.55;;;307.70;1459.20;;;;;;4902943;29;20462;-77
2022/03/14 15:14:29;;;;;;;60.75;40.20;;;307.60;1433.60;;;;;;4919777;29;20112;-76
2022/03/14 15:16:55;;;;;;;69.43;43.60;;;307.50;1433.60;;;;;;4919887;29;20024;-78
2022/03/14 15:19:20;;;;;;;40.15;24.20;;;307.40;1433.60;;;;;;4919750;29;20031;-78
2022/03/14 15:21:48;;;;;;;44.28;27.65;;;307.30;1459.20;;;;;;4902520;29;20355;-77
2022/03/14 15:24:14;;;;;;;36.40;24.52;;;307.20;1433.60;;;;;;4902575;29;20028;-79
2022/03/14 15:26:41;;;;;;;42.50;29.33;;;307.20;1459.20;;;;;;4902654;29;20415;-78
2022/03/14 15:29:07;;;;;;;43.85;28.92;;;282.30;1433.60;;;;;;4902381;29;20028;-77
2022/03/14 15:31:34;;;;;;;55.70;33.38;;;282.50;1459.20;;;;;;4919049;29;20031;-77
2022/03/14 15:34:00;;;;;;;61.58;37.08;;;282.40;1459.20;;;;;;4902403;29;20024;-79
2022/03/14 15:36:26;;;;;;;70.50;46.78;;;282.40;1510.40;;;;;;4902281;29;20034;-77
2022/03/14 15:38:52;;;;;;;76.65;46.83;;;282.10;1561.60;;;;;;4902188;29;20028;-77
2022/03/14 15:41:18;;;;;;;57.72;36.58;;;282.00;1612.80;;;;;;4902278;29;20024;-78
2022/03/14 15:43:43;;;;;;;47.97;30.50;;;281.90;1638.40;;;;;;4918594;29;20429;-79
2022/03/14 15:46:28;;;;;;;43.97;29.45;;;281.70;1664.00;;;;;;4902243;29;20035;-79
2022/03/14 15:48:54;;;;;;;57.67;33.55;;;256.90;1612.80;;;;;;4878089;29;20057;-78
2022/03/14 15:51:23;;;;;;;71.30;45.42;;;256.80;1638.40;;;;;;4863515;29;20037;-79
2022/03/14 15:54:11;;;;;;;66.88;42.33;;;256.80;1638.40;;;;;;4863324;29;20503;-79
2022/03/14 15:56:41;;;;;;;69.55;44.50;;;256.70;1638.40;;;;;;4863266;29;20456;-79
2022/03/14 15:59:47;;;;;;;66.65;43.47;;;256.60;1638.40;;;;;;4863432;29;20068;-78
2022/03/14 16:02:17;;;;;;;62.92;44.15;;;256.50;1638.40;;;;;;4789773;29;20038;-80
2022/03/14 16:05:07;;;;;;;53.70;36.20;;;256.30;1664.00;;;;;;4789914;29;20167;-79
2022/03/14 16:07:39;;;;;;;41.17;27.83;;;231.10;1664.00;;;;;;4800581;29;20091;-79
2022/03/14 16:10:06;;;;;;;37.63;27.35;;;256.00;1689.60;;;;;;4816851;29;20029;-77
2022/03/14 16:12:32;;;;;;;36.17;22.70;;;231.30;1689.60;;;;;;4863068;29;20033;-78
2022/03/14 16:15:00;;;;;;;32.05;19.92;;;231.20;1689.60;;;;;;4878891;29;20040;-80
2022/03/14 16:17:32;;;;;;;30.38;18.77;;;231.10;1689.60;;;;;;4878308;29;20029;-77
2022/03/14 16:19:59;;;;;;;28.15;19.80;;;231.00;1715.20;;;;;;4883600;29;20036;-78
2022/03/14 16:22:26;;;;;;;52.25;35.00;;;231.00;1715.20;;;;;;4901528;29;20027;-79
2022/03/14 16:24:52;;;;;;;136.20;73.20;;;230.90;1715.20;;;;;;4901203;29;20339;-79
2022/03/14 16:27:21;;;;;;;54.30;35.00;;;230.90;1715.20;;;;;;4901359;29;20039;-78
2022/03/14 16:29:52;;;;;;;37.83;26.90;;;230.80;1715.20;;;;;;4901221;29;20024;-78
2022/03/14 16:32:18;;;;;;;45.05;29.20;;;230.70;1740.80;;;;;;4900977;29;20032;-80
2022/03/14 16:34:51;;;;;;;49.75;31.92;;;230.60;1740.80;;;;;;4901063;29;20051;-80
2022/03/14 16:37:29;;;;;;;64.50;40.65;;;230.50;1740.80;;;;;;4901364;29;20352;-81
2022/03/14 16:40:04;;;;;;;68.63;44.97;;;230.40;1792.00;;;;;;4900422;29;20134;-76
2022/03/14 16:42:30;;;;;;;73.97;47.33;;;205.70;1792.00;;;;;;4900939;29;20019;-80
2022/03/14 16:44:56;;;;;;;93.68;62.30;;;205.70;1817.60;;;;;;4900731;29;20031;-77
2022/03/14 16:55:00;;;;;;;125.03;85.30;;;205.40;1843.20;;;;;;4917750;29;20127;-82
2022/03/14 16:58:07;;;;;;;119.97;84.85;;;205.30;1868.80;;;;;;4902812;29;20111;-79
2022/03/14 17:03:45;;;;;;;129.55;90.40;;;205.20;1894.40;;;;;;4920285;29;20560;-75
2022/03/14 17:06:11;;;;;;;139.38;91.53;;;205.10;1920.00;;;;;;4903539;29;20051;-80
2022/03/14 17:08:37;;;;;;;138.43;97.63;;;205.00;1945.60;;;;;;4919790;29;20020;-78
2022/03/14 17:11:03;;;;;;;146.75;95.20;;;204.80;1945.60;;;;;;4901914;29;20043;-80
2022/03/14 17:13:43;;;;;;;137.85;92.57;;;180.10;1971.20;;;;;;4901365;29;20082;-79
2022/03/14 17:16:09;;;;;;;115.55;76.10;;;179.90;1971.20;;;;;;4901302;29;20107;-79
2022/03/14 17:18:35;;;;;;;102.78;63.20;;;179.80;1971.20;;;;;;4900395;29;20172;-78
2022/03/14 17:21:01;;;;;;;82.15;51.03;;;179.80;1971.20;;;;;;4896881;29;20479;-79
2022/03/14 17:23:27;;;;;;;77.40;49.85;;;;;;;;;;4899424;29;20115;-78
2022/03/14 17:25:55;;;;;;;63.58;39.08;;;179.50;1996.80;;;;;;4883305;29;20029;-80
2022/03/14 17:28:22;;;;;;;43.97;31.10;;;179.40;1996.80;;;;;;4898906;29;20026;-78
2022/03/14 17:30:48;;;;;;;46.55;28.67;;;179.40;1996.80;;;;;;4900671;29;20028;-79
2022/03/14 17:33:15;;;;;;;44.22;27.80;;;179.40;1996.80;;;;;;4883645;29;20033;-79
2022/03/14 17:35:45;;;;;;;43.00;32.80;;;179.40;1971.20;;;;;;4882870;29;20035;-77
2022/03/14 17:38:10;;;;;;;58.83;39.78;;;179.30;1996.80;;;;;;4883738;29;20103;-77
2022/03/14 17:40:39;;;;;;;50.63;31.13;;;154.50;2022.40;;;;;;4883262;29;20477;-78
2022/03/14 17:43:06;;;;;;;48.17;32.35;;;154.40;2022.40;;;;;;4900774;29;20032;-76
2022/03/14 17:45:32;;;;;;;43.75;27.40;;;154.50;2022.40;;;;;;4897755;29;20028;-76
2022/03/14 18:54:06;;;;;;;258.15;152.23;;;128.40;2252.80;;;;;;5137433;23;20111;-78
2022/03/14 18:56:35;;;;;;;284.42;171.82;;;128.30;2252.80;;;;;;4902996;29;20059;-78
2022/03/14 18:59:07;;;;;;;282.23;176.45;;;128.20;2252.80;;;;;;4902814;29;20026;-79
2022/03/14 19:01:53;;;;;;;367.77;228.25;;;128.20;2252.80;;;;;;4902587;29;20024;-78
2022/03/14 19:04:25;;;;;;;296.05;186.57;;;128.20;2252.80;;;;;;4902983;29;20374;-78
2022/03/14 19:06:51;;;;;;;306.57;187.00;;;128.30;2252.80;;;;;;4902394;29;20028;-77
2022/03/14 19:09:18;;;;;;;248.70;154.07;;;128.20;2252.80;;;;;;4902980;29;20115;-78
2022/03/14 19:11:45;;;;;;;297.85;176.90;;;128.20;2252.80;;;;;;4902151;29;20028;-78
2022/03/14 19:14:18;;;;;;;288.35;181.68;;;128.20;2252.80;;;;;;4902504;29;20028;-77
2022/03/14 19:16:44;;;;;;;299.17;197.30;;;128.20;2252.80;;;;;;4902912;29;20032;-78
2022/03/14 19:19:11;;;;;;;302.48;190.90;;;128.20;2252.80;;;;;;4902578;29;20020;-78
2022/03/14 19:21:37;;;;;;;325.25;210.18;;;128.10;2252.80;;;;;;4919768;29;20020;-79
2022/03/14 19:24:04;;;;;;;327.50;214.45;;;128.00;2252.80;;;;;;4902763;29;20032;-79
2022/03/14 19:26:32;;;;;;;432.10;273.33;;;103.30;2227.20;;;;;;4902148;29;20458;-81
2022/03/14 19:28:58;;;;;;;361.55;230.68;;;103.20;2227.20;;;;;;4902608;29;20075;-79
2022/03/14 19:31:27;;;;;;;415.10;267.08;;;103.00;2227.20;;;;;;4902574;29;20024;-76
2022/03/14 19:33:56;;;;;;;345.90;228.38;;;102.90;2227.20;;;;;;4902151;29;20374;-78
2022/03/14 19:36:23;;;;;;;309.20;207.05;;;102.90;2227.20;;;;;;4919111;29;20062;-75
2022/03/14 19:39:24;;;;;;;264.58;172.55;;;103.00;2227.20;;;;;;4901989;29;20032;-75
2022/03/14 19:41:50;;;;;;;223.25;143.00;;;103.10;2227.20;;;;;;4891048;29;20032;-76
2022/03/14 19:44:16;;;;;;;215.77;132.77;;;103.10;2227.20;;;;;;4902167;29;20382;-77
2022/03/14 19:46:44;;;;;;;255.20;145.80;;;103.00;2227.20;;;;;;4901706;29;20028;-81
2022/03/14 19:49:11;;;;;;;190.35;123.03;;;103.00;2227.20;;;;;;4919259;29;20025;-80
2022/03/14 19:51:36;;;;;;;181.35;120.30;;;103.00;2227.20;;;;;;4918998;29;20020;-76
2022/03/14 19:54:03;;;;;;;175.00;112.63;;;103.10;2227.20;;;;;;4901226;29;20059;-76
2022/03/14 19:56:30;;;;;;;221.40;150.88;;;103.10;2227.20;;;;;;4901890;29;20020;-76
2022/03/14 19:58:56;;;;;;;276.20;187.93;;;103.10;2227.20;;;;;;4918896;29;20032;-78
2022/03/14 20:01:23;;;;;;;328.80;213.95;;;103.10;2227.20;;;;;;4901611;29;20024;-75
2022/03/14 20:03:49;;;;;;;224.00;144.18;;;103.10;2227.20;;;;;;4901770;29;20028;-78
2022/03/14 20:06:16;;;;;;;207.25;142.93;;;103.00;2227.20;;;;;;4901614;29;20079;-76
2022/03/14 20:08:48;;;;;;;240.90;153.93;;;102.90;2227.20;;;;;;4901618;29;20020;-80
2022/03/14 20:11:14;;;;;;;265.30;159.93;;;102.90;2227.20;;;;;;4901897;29;20076;-80
2022/03/14 20:13:41;;;;;;;214.52;137.80;;;102.90;2227.20;;;;;;4901613;29;20024;-79
2022/03/14 20:16:09;;;;;;;217.23;138.82;;;102.80;2227.20;;;;;;4901475;29;20024;-79
2022/03/14 20:18:36;;;;;;;213.30;137.02;;;102.80;2227.20;;;;;;4901509;29;20040;-79
2022/03/14 20:21:03;;;;;;;235.65;149.98;;;102.70;2227.20;;;;;;4901691;29;20063;-76
2022/03/14 20:23:29;;;;;;;301.75;175.73;;;102.70;2227.20;;;;;;4901233;29;20060;-79
2022/03/14 20:26:01;;;;;;;303.08;184.70;;;102.70;2227.20;;;;;;4901526;29;20066;-79
2022/03/14 20:28:27;;;;;;;407.52;225.35;;;102.70;2227.20;;;;;;4901421;29;20028;-79
2022/03/14 20:30:54;;;;;;;240.93;148.65;;;102.50;2227.20;;;;;;4901458;29;20028;-80
2022/03/14 20:33:21;;;;;;;215.88;127.05;;;102.50;2227.20;;;;;;4918404;29;20148;-81
2022/03/14 20:35:48;;;;;;;210.88;132.55;;;102.40;2227.20;;;;;;4901273;29;20034;-79
2022/03/14 20:38:14;;;;;;;216.55;130.90;;;102.40;2227.20;;;;;;4901318;29;20027;-80
2022/03/14 20:40:40;;;;;;;190.15;125.30;;;102.40;2227.20;;;;;;4901450;29;20023;-79
2022/03/14 20:43:06;;;;;;;188.35;120.53;;;77.70;2227.20;;;;;;4908590;29;20019;-74
2022/03/14 20:45:33;;;;;;;219.32;144.75;;;77.70;2227.20;;;;;;4923441;29;20047;-74
2022/03/14 20:47:59;;;;;;;307.35;185.70;;;77.70;2227.20;;;;;;4924306;29;20083;-76
2022/03/14 20:50:25;;;;;;;331.65;201.45;;;77.70;2227.20;;;;;;4924570;29;20012;-74
2022/03/14 20:52:52;;;;;;;239.15;149.57;;;77.70;2227.20;;;;;;4924775;29;20035;-75
2022/03/14 20:55:19;;;;;;;206.43;134.63;;;77.70;2227.20;;;;;;4924881;29;20039;-80
2022/03/14 20:57:51;;;;;;;263.42;152.25;;;102.40;2227.20;;;;;;4924556;29;20093;-75
2022/03/14 21:00:17;;;;;;;252.93;147.97;;;77.50;2227.20;;;;;;4912953;29;20024;-78
2022/03/14 21:05:29;;;;;;;183.98;115.63;;;77.50;2227.20;;;;;;4918185;29;20031;-82
2022/03/14 21:07:55;;;;;;;206.77;130.85;;;77.30;2227.20;;;;;;4901374;29;20374;-82
2022/03/14 21:10:26;;;;;;;174.27;110.32;;;77.20;2227.20;;;;;;4918396;29;20024;-81
2022/03/14 21:12:53;;;;;;;261.70;140.30;;;77.20;2227.20;;;;;;4900793;29;20034;-82
2022/03/14 21:15:19;;;;;;;202.02;131.30;;;77.20;2227.20;;;;;;4901204;29;20079;-84
2022/03/14 21:17:49;;;;;;;194.25;127.97;;;77.20;2227.20;;;;;;4900563;29;20759;-78
2022/03/14 21:20:21;;;;;;;173.70;118.57;;;77.10;2227.20;;;;;;4900766;29;20024;-78
2022/03/14 21:22:47;;;;;;;270.52;143.32;;;77.10;2227.20;;;;;;4900792;29;20467;-77
2022/03/14 21:25:14;;;;;;;282.20;149.45;;;77.20;2227.20;;;;;;4900468;29;20119;-79
2022/03/14 21:27:41;;;;;;;239.80;135.77;;;77.20;2227.20;;;;;;4900664;29;20024;-80
2022/03/14 21:30:11;;;;;;;231.18;135.73;;;77.20;2227.20;;;;;;4900580;29;20031;-80
2022/03/14 21:32:47;;;;;;;209.10;123.15;;;77.20;2227.20;;;;;;4900178;29;20027;-79
2022/03/14 21:35:15;;;;;;;222.75;127.28;;;77.10;2227.20;;;;;;4900800;29;20530;-79
2022/03/14 21:37:49;;;;;;;200.90;123.20;;;77.10;2227.20;;;;;;4900587;29;20020;-82
2022/03/14 21:40:17;;;;;;;254.35;148.45;;;77.10;2227.20;;;;;;4917172;29;20034;-79
2022/03/14 21:42:44;;;;;;;274.08;161.63;;;77.00;2227.20;;;;;;4900479;29;20056;-80
2022/03/14 21:45:13;;;;;;;291.70;167.88;;;77.10;2227.20;;;;;;4900582;29;20027;-82
2022/03/14 21:47:42;;;;;;;293.52;170.10;;;77.00;2227.20;;;;;;4899959;29;20020;-80
2022/03/14 21:50:20;;;;;;;256.88;154.30;;;77.00;2227.20;;;;;;4900387;29;20031;-82
2022/03/14 21:52:46;;;;;;;264.40;157.52;;;77.00;2227.20;;;;;;4899870;29;20059;-83
2022/03/14 21:55:12;;;;;;;197.88;112.60;;;77.40;2227.20;;;;;;4900365;29;20028;-79
2022/03/14 21:57:39;;;;;;;172.38;99.30;;;76.80;2227.20;;;;;;4900490;29;20366;-81